Tiempo atmosférico en la estación meteorológica de Liceras, Soria (1150 m.)



Fecha
DESCASC
Temp. máxima en grados centígrados (hora)
DESCASC
Temp. mínima en grados centígrados (hora)
DESCASC
Temp. media en grados centígrados
DESCASC
Racha de viento máxima en m/sg (hora)
DESCASC
Velocidad máxima media en intervalos de 10 minutos(hora)
DESCASC
Precipitaciones diarias en mm
DESCASC
Precipitaciones de 00:00 a 06:00 en mm
DESCASC
Precipitaciones de 06:00 a 12:00 en mm
DESCASC
Precipitaciones de 12:00 a 18:00 en mm
DESCASC
Precipitaciones de 18:00 a 24:00 en mm
DESCASC
23-06-2019 29.5 (17:30) 13.3 (03:50) 21.4 16.67 (12:30) 7.78 (13:50) 0 0 0 0 0
22-06-2019 29 (17:50) 8.5 (04:10) 18.8 9.44 (15:00) 5.83 (19:10) 0 0 0 0 0
21-06-2019 23 (18:30) 11.3 (01:40) 17.2 8.61 (18:50) 5.83 (19:00) 0 0 0 0 0
20-06-2019 23.6 (13:30) 12 (00:00) 17.8 16.39 (19:00) 9.44 (19:10) 1 0 0 0 1
19-06-2019 25.5 (17:20) 13.7 (00:00) 19.6 9.72 (12:10) 6.67 (20:50) 0 0 0 0 0
18-06-2019 27.2 (17:50) 12.2 (00:00) 19.7 15.28 (14:20) 9.72 (15:10) 0 0 0 0 0
17-06-2019 28.7 (18:10) 11.1 (00:00) 19.9 9.44 (18:00) 5.83 (13:10) 0 0 0 0 0
16-06-2019 27.9 (19:00) 6.6 (00:00) 17.2 11.11 (16:10) 5 (17:40) 0 0 0 0 0
15-06-2019 22.5 (19:00) 6.9 (00:00) 14.7 9.72 (03:30) 6.67 (03:30) 0 0 0 0 0
14-06-2019 23.6 (17:30) 8.3 (00:00) 16 12.5 (17:40) 6.67 (12:20) 0 0 0 0 0
13-06-2019 24.5 (17:30) 6 (00:00) 15.3 14.72 (13:10) 9.17 (06:10) 0 0 0 0 0
12-06-2019 20.9 (18:40) 1.6 (00:00) 11.2 6.94 (18:00) 3.89 (19:40) 0 0 0 0 0
11-06-2019 14.7 (17:50) 5.8 (00:00) 10.3 11.39 (17:10) 7.78 (17:30) 1.4 0 1.4 0 0
10-06-2019 19.6 (17:30) 6.2 (00:00) 12.9 12.78 (13:00) 6.94 (10:50) 0 0 0 0 0
09-06-2019 23.1 (17:00) 12 (00:00) 17.6 11.67 (15:10) 7.5 (15:30) 0 0 0 0 0
08-06-2019 23.6 (17:00) 1.6 (00:00) 12.6 12.22 (13:30) 7.5 (12:40) 0 0 0 0 0
07-06-2019 17.2 (18:10) 4.6 (00:00) 10.9 15.56 (00:10) 10.28 (02:40) 0.8 0.8 0 0 0
06-06-2019 19.3 (18:10) 5.2 (00:00) 12.2 17.22 (15:50) 10.28 (19:30) 0 0 0 0 0
05-06-2019 16.6 (18:30) 6.2 (00:00) 11.4 14.72 (05:30) 9.72 (05:40) 3.4 0 3.4 0 0
04-06-2019 26.4 (14:50) 9.9 (00:00) 18.1 12.5 (17:00) 7.5 (21:10) 0 0 0 0 0
03-06-2019 30.1 (17:30) 13.2 (00:00) 21.7 15.83 (17:10) 8.33 (13:40) 0 0 0 0 0
02-06-2019 30.7 (17:50) 14.2 (00:00) 22.5 11.39 (21:40) 6.39 (21:20) 0 0 0 0 0
01-06-2019 31.2 (17:20) 12.7 (00:00) 22 10.56 (03:20) 6.94 (03:30) 0 0 0 0 0
31-05-2019 29.3 (18:20) 8.3 (00:00) 18.8 8.33 (15:30) 4.72 (04:00) 0 0 0 0 0
30-05-2019 27.4 (18:50) 4.6 (00:00) 16 9.72 (14:20) 5.56 (19:50) 0 0 0 0 0
29-05-2019 21.2 (18:20) 2.6 (00:00) 11.9 10 (14:00) 6.11 (14:20) 0 0 0 0 0
28-05-2019 18.2 (16:10) 4.2 (00:00) 11.2 11.67 (17:40) 8.06 (17:40) 0 0 0 0 0

Gráficas

Temp. máximas Temp. mínimas Temp. medias Precipitaciones Rachas de viento máximas Velocidades máximas media en intervalos de 10 minutos

Datos horarios

Fecha y hora oficial Temperatura (ºC) Velocidad del viento (km/h) Dirección del viento Racha (km/h) Dirección de racha Precipitación (mm) Presión (hPa) Tendencia (hPa) Humedad (%)
2019-06-26 23:00:00 23.8 0 Calma 10 Sur 0 -- -- 43
2019-06-26 22:00:00 26.6 7 Sudeste 21 Sur 0 -- -- 37
2019-06-26 21:00:00 30.1 9 Sur 23 Sur 0 -- -- 32
2019-06-26 20:00:00 30.3 14 Sur 31 Sur 0 -- -- 30
2019-06-26 19:00:00 30.7 14 Sur 36 Sur 0 -- -- 28
2019-06-26 18:00:00 31 22 Sur 41 Sur 0 -- -- 27
2019-06-26 17:00:00 32.8 22 Sur 42 Sur 0 -- -- 26
2019-06-26 16:00:00 30.9 22 Sur 49 Sur 0 -- -- 29
2019-06-26 15:00:00 31.2 23 Sur 41 Sur 0 -- -- 29
2019-06-26 14:00:00 30.8 21 Sur 37 Sur 0 -- -- 29
2019-06-26 13:00:00 30.2 23 Sur 33 Sudeste 0 -- -- 31
2019-06-26 12:00:00 30.2 18 Sur 32 Sur 0 -- -- 30
2019-06-26 11:00:00 29.2 16 Sur 28 Sur 0 -- -- 30
2019-06-26 10:00:00 26.3 11 Este 21 Este 0 -- -- 42
2019-06-26 09:00:00 26 9 Sur 27 Sur 0 -- -- 41
2019-06-26 08:00:00 21.7 7 Noroeste 22 Oeste 0 -- -- 57
2019-06-26 07:00:00 16.9 4 Noroeste 23 Norte 0 -- -- 72
2019-06-26 06:00:00 20.2 10 Sudeste 41 Sur 0 -- -- 61
2019-06-26 05:00:00 21 21 Sur 34 Sur 0 -- -- 60
2019-06-26 04:00:00 21.7 16 Sur 33 Sur 0 -- -- 58
2019-06-26 03:00:00 22.9 18 Sur 31 Sur 0 -- -- 48
2019-06-26 02:00:00 20.7 9 Sur 17 Sur 0 -- -- 48
2019-06-26 01:00:00 20.3 2 Sudeste 19 Sudeste 0 -- -- 46
2019-06-26 00:00:00 21.8 6 Sudeste 13 Sur 0 -- -- 41
2019-06-25 23:00:00 22.4 10 Sur 14 Sudeste 0 -- -- 39
2019-06-25 22:00:00 25.8 9 Sur 15 Sudeste 0 -- -- 32
2019-06-25 21:00:00 27.5 7 Sur 28 Sur 0 -- -- 30
2019-06-25 20:00:00 29.3 17 Sur 28 Sudoeste 0 -- -- 28
2019-06-25 19:00:00 29.5 13 Sudoeste 34 Sur 0 -- -- 28
2019-06-25 18:00:00 30 14 Sur 39 Sur 0 -- -- 26
2019-06-25 17:00:00 30.3 21 Sur 39 Sur 0 -- -- 24
2019-06-25 16:00:00 30.7 19 Sur 36 Sur 0 -- -- 24
2019-06-25 15:00:00 30 18 Sudoeste 40 Sudoeste 0 -- -- 25
2019-06-25 14:00:00 28 20 Sur 41 Sudoeste 0 -- -- 27
2019-06-25 13:00:00 26 23 Sudoeste 47 Sudoeste 0 -- -- 32
2019-06-25 12:00:00 25.3 17 Sudeste 29 Sur 0 -- -- 40
2019-06-25 11:00:00 23.8 15 Sur 23 Sudeste 0 -- -- 44
2019-06-25 10:00:00 21.5 11 Sudeste 16 Sudeste 0 -- -- 51
2019-06-25 09:00:00 19.9 10 Sudeste 15 Sudeste 0 -- -- 55
2019-06-25 08:00:00 14.3 0 Calma 13 Sudeste 0 -- -- 80
2019-06-25 07:00:00 11.8 7 Sudeste 10 Sudeste 0 -- -- 88
2019-06-25 06:00:00 11.6 6 Sudeste 13 Sudeste 0 -- -- 88
2019-06-25 05:00:00 10.6 8 Sudeste 13 Este 0 -- -- 89
2019-06-25 04:00:00 11.6 6 Sudeste 9 Sur 0 -- -- 88
2019-06-25 03:00:00 12.1 3 Sudeste 9 Sur 0 -- -- 87
2019-06-25 02:00:00 12.7 5 Sudeste 6 Sur 0 -- -- 85
2019-06-25 01:00:00 13.5 4 Noroeste 14 Noroeste 0 -- -- 81
2019-06-25 00:00:00 14.8 11 Noroeste 22 Noroeste 0 -- -- 76
2019-06-24 23:00:00 16.3 17 Noroeste 28 Noroeste 0 -- -- 69
2019-06-24 22:00:00 18.1 20 Noroeste 40 Noroeste 0 -- -- 59
2019-06-24 21:00:00 25.9 16 Sudoeste 31 Sudoeste 0 -- -- 33
2019-06-24 20:00:00 25 17 Sudoeste 28 Sudoeste 0 -- -- 35
2019-06-24 19:00:00 25.4 18 Sur 32 Sur 0 -- -- 33
2019-06-24 18:00:00 25.7 20 Sur 33 Sudoeste 0 -- -- 33
2019-06-24 17:00:00 26.8 13 Sudoeste 38 Sudoeste 0 -- -- 32
2019-06-24 16:00:00 26.5 20 Sur 35 Sudoeste 0 -- -- 31
2019-06-24 15:00:00 26.6 14 Sur 24 Sur 0 -- -- 33
2019-06-24 14:00:00 24.7 17 Sur 25 Sur 0 -- -- 34
2019-06-24 13:00:00 23.5 15 Sur 30 Sur 0 -- -- 36
2019-06-24 12:00:00 22.3 11 Sur 19 Sur 0 -- -- 37
2019-06-24 11:00:00 22.5 9 Sudoeste 14 Sudoeste 0 -- -- 35
2019-06-24 10:00:00 21.6 5 Sur 12 Sur 0 -- -- 35
2019-06-24 09:00:00 20.4 2 Sur 19 Sudoeste 0 -- -- 36
2019-06-24 08:00:00 19.3 13 Sur 31 Sur 0 -- -- 36
2019-06-24 07:00:00 18.8 17 Sudeste 42 Sudoeste 0 -- -- 38
2019-06-24 06:00:00 20.7 24 Sur 47 Sur 0 -- -- 35
2019-06-24 05:00:00 20.3 23 Sudoeste 49 Sudoeste 0 -- -- 37
2019-06-24 04:00:00 20.6 19 Sudoeste 31 Sudoeste 0 -- -- 40
2019-06-24 03:00:00 21.4 11 Sudeste 21 Sur 0 -- -- 40
2019-06-24 02:00:00 18.8 10 Sudoeste 19 Sudoeste 0 -- -- 42
2019-06-24 01:00:00 19.7 14 Sudoeste 17 Sudoeste 0 -- -- 39
2019-06-24 00:00:00 19.6 4 Sudeste 9 Sur 0 -- -- 39
2019-06-23 23:00:00 21.8 6 Sudeste 7 Sudeste 0 -- -- 33
2019-06-23 22:00:00 23.1 4 Sudeste 6 Sudoeste 0 -- -- 30
2019-06-23 21:00:00 24.9 5 Sudoeste 18 Sudoeste 0 -- -- 28
2019-06-23 20:00:00 26.4 11 Sudoeste 26 Sudoeste 0 -- -- 25
2019-06-23 19:00:00 27.9 20 Sudoeste 40 Sur 0 -- -- 22
2019-06-23 18:00:00 28.9 17 Sudoeste 36 Sur 0 -- -- 22
2019-06-23 17:00:00 28.7 20 Sur 40 Sur 0 -- -- 25
2019-06-23 16:00:00 28.7 22 Sur 44 Sur 0 -- -- 26
2019-06-23 15:00:00 28.2 25 Sudoeste 41 Sudoeste 0 -- -- 28
2019-06-23 14:00:00 26.8 26 Sudoeste 44 Sudoeste 0 -- -- 29
2019-06-23 13:00:00 27.6 21 Sudoeste 60 Sudoeste 0 -- -- 30
2019-06-23 12:00:00 27.2 19 Sudoeste 39 Sudoeste 0 -- -- 28
2019-06-23 11:00:00 24.1 6 Nordeste 16 Noroeste 0 -- -- 30
2019-06-23 10:00:00 24.2 10 Oeste 20 Oeste 0 -- -- 30
2019-06-23 09:00:00 21.1 13 Oeste 22 Oeste 0 -- -- 48
2019-06-23 08:00:00 18.5 19 Sur 25 Sur 0 -- -- 58
2019-06-23 07:00:00 16.5 11 Sur 20 Sur 0 -- -- 63
2019-06-23 06:00:00 17.2 18 Sur 30 Sur 0 -- -- 59
2019-06-23 05:00:00 16.3 14 Sur 24 Sur 0 -- -- 47
2019-06-23 04:00:00 16.1 15 Sur 21 Sudeste 0 -- -- 44
2019-06-23 03:00:00 16.1 9 Sur 13 Sur 0 -- -- 43
2019-06-23 02:00:00 17.6 5 Sur 17 Noroeste 0 -- -- 41
2019-06-23 01:00:00 18.8 10 Sur 15 Sur 0 -- -- 39
2019-06-23 00:00:00 19.4 4 Sur 16 Sur 0 -- -- 37
2019-06-22 23:00:00 18.9 8 Sur 12 Sur 0 -- -- 38
2019-06-22 22:00:00 21.4 6 Sur 22 Sudoeste 0 -- -- 33
2019-06-22 21:00:00 25.7 10 Sudoeste 25 Sudoeste 0 -- -- 27
2019-06-22 20:00:00 25.8 16 Sudoeste 33 Sudoeste 0 -- -- 27
2019-06-22 19:00:00 25.8 21 Sudoeste 32 Sur 0 -- -- 26
2019-06-22 18:00:00 28.9 14 Sudoeste 32 Sudoeste 0 -- -- 25
2019-06-22 17:00:00 27.4 17 Sudoeste 31 Sudoeste 0 -- -- 27
2019-06-22 16:00:00 26.8 17 Oeste 33 Noroeste 0 -- -- 32
2019-06-22 15:00:00 26.9 18 Oeste 34 Oeste 0 -- -- 32
2019-06-22 14:00:00 26.1 18 Oeste 30 Oeste 0 -- -- 30
2019-06-22 13:00:00 24.9 17 Noroeste 30 Noroeste 0 -- -- 31
2019-06-22 12:00:00 24.7 10 Sudoeste 19 Oeste 0 -- -- 36
2019-06-22 11:00:00 23.6 8 Oeste 27 Sudoeste 0 -- -- 40
2019-06-22 10:00:00 21.2 15 Sudoeste 30 Sudoeste 0 -- -- 52
2019-06-22 09:00:00 20 11 Sudoeste 17 Sudoeste 0 -- -- 56
2019-06-22 08:00:00 14.6 7 Sudeste 12 Sudeste 0 -- -- 69
2019-06-22 07:00:00 9.7 6 Sudeste 17 Sudeste 0 -- -- 83
2019-06-22 06:00:00 10.3 12 Sudeste 19 Sudeste 0 -- -- 81
2019-06-22 05:00:00 10.7 16 Sudeste 24 Sudeste 0 -- -- 82
2019-06-22 04:00:00 8.7 10 Sudeste 13 Sudeste 0 -- -- 86
2019-06-22 03:00:00 9.6 9 Sudeste 15 Sudeste 0 -- -- 83
2019-06-22 02:00:00 11.1 11 Sudeste 18 Sudeste 0 -- -- 78
2019-06-22 01:00:00 10.9 6 Sur 10 Este 0 -- -- 72
2019-06-22 00:00:00 12.4 2 Oeste 14 Sudeste 0 -- -- 67
2019-06-21 23:00:00 12.9 4 Norte 10 Norte 0 -- -- 68
2019-06-21 22:00:00 15.4 9 Norte 26 Norte 0 -- -- 58
2019-06-21 21:00:00 18.8 18 Norte 27 Noroeste 0 -- -- 47
2019-06-21 20:00:00 20.5 16 Noroeste 26 Noroeste 0 -- -- 42
2019-06-21 19:00:00 21.2 21 Noroeste 31 Noroeste 0 -- -- 42
2019-06-21 18:00:00 22.5 10 Norte 25 Noroeste 0 -- -- 40
2019-06-21 17:00:00 21.9 11 Oeste 30 Oeste 0 -- -- 41
2019-06-21 16:00:00 19.8 8 Norte 19 Noroeste 0 -- -- 47
2019-06-21 15:00:00 18.8 10 Norte 24 Noroeste 0 -- -- 53
2019-06-21 14:00:00 17.4 17 Noroeste 28 Noroeste 0 -- -- 60
2019-06-21 13:00:00 16.6 15 Noroeste 23 Noroeste 0 -- -- 72
2019-06-21 12:00:00 15 14 Norte 21 Norte 0 -- -- 78
2019-06-21 11:00:00 12.9 13 Noroeste 17 Noroeste 0 -- -- 89
2019-06-21 10:00:00 13.7 10 Noroeste 16 Noroeste 0 -- -- 85
2019-06-21 09:00:00 14.3 3 Sudoeste 10 Sudeste 0 -- -- 79
2019-06-21 08:00:00 13.1 4 Este 8 Sudeste 0 -- -- 94
2019-06-21 07:00:00 11.6 0 Calma 5 Nordeste 0 -- -- 96
2019-06-21 06:00:00 11.4 3 Norte 8 Norte 0 -- -- 96
2019-06-21 05:00:00 11.4 5 Norte 17 Noroeste 0 -- -- 96
2019-06-21 04:00:00 12.1 9 Noroeste 17 Noroeste 0 -- -- 96
2019-06-21 03:00:00 12.5 3 Noroeste 8 Oeste 0 -- -- 94
2019-06-21 02:00:00 11.4 2 Norte 9 Sudeste 0 -- -- 91
2019-06-21 01:00:00 12.5 3 Este 12 Sudeste 0 -- -- 90
2019-06-21 00:00:00 12.5 12 Sudeste 13 Sudeste 0 -- -- 90
2019-06-20 23:00:00 13.4 0 Calma 10 Este 0 -- -- 89
2019-06-20 22:00:00 13.7 7 Este 17 Nordeste 0 -- -- 83
2019-06-20 21:00:00 14.7 5 Este 13 Este 0 -- -- 81
2019-06-20 20:00:00 14.6 5 Sudoeste 49 Oeste 0.8 -- -- 85
2019-06-20 19:00:00 15.2 30 Noroeste 59 Oeste 0.2 -- -- 76
2019-06-20 18:00:00 21.4 6 Norte 19 Nordeste 0 -- -- 44
2019-06-20 17:00:00 22.2 13 Nordeste 27 Noroeste 0 -- -- 44
2019-06-20 16:00:00 20.1 17 Noroeste 25 Noroeste 0 -- -- 54
2019-06-20 15:00:00 20 14 Norte 20 Norte 0 -- -- 47
2019-06-20 14:00:00 23.1 7 Nordeste 16 Sudeste 0 -- -- 40
2019-06-20 13:00:00 21.7 10 Nordeste 16 Nordeste 0 -- -- 42
2019-06-20 12:00:00 21.1 3 Nordeste 15 Nordeste 0 -- -- 45
2019-06-20 11:00:00 19.6 5 Este 13 Nordeste 0 -- -- 47
2019-06-20 10:00:00 19.4 4 Norte 9 Norte 0 -- -- 49
2019-06-20 09:00:00 16.3 6 Sudoeste 9 Sudoeste 0 -- -- 61
2019-06-20 08:00:00 14.1 8 Sudoeste 10 Sudoeste 0 -- -- 68
2019-06-20 07:00:00 12.3 8 Sudoeste 9 Sudoeste 0 -- -- 75
2019-06-20 06:00:00 12.5 6 Sudoeste 10 Sudoeste 0 -- -- 73
2019-06-20 05:00:00 12.6 4 Noroeste 5 Noroeste 0 -- -- 73
2019-06-20 04:00:00 12.8 0 Calma 9 Oeste 0 -- -- 72
2019-06-20 03:00:00 14 0 Calma 9 Oeste 0 -- -- 65
2019-06-20 02:00:00 14 6 Oeste 12 Oeste 0 -- -- 66
2019-06-20 01:00:00 14.1 3 Noroeste 9 Noroeste 0 -- -- 64
2019-06-20 00:00:00 14.7 2 Norte 14 Noroeste 0 -- -- 61
2019-06-19 23:00:00 16.7 11 Noroeste 24 Noroeste 0 -- -- 54
2019-06-19 22:00:00 18.7 16 Noroeste 29 Noroeste 0 -- -- 50
2019-06-19 21:00:00 22 21 Noroeste 34 Noroeste 0 -- -- 40
2019-06-19 20:00:00 23 17 Oeste 31 Oeste 0 -- -- 36
2019-06-19 19:00:00 25.1 11 Oeste 27 Oeste 0 -- -- 32
2019-06-19 18:00:00 23.3 19 Oeste 31 Noroeste 0 -- -- 38
2019-06-19 17:00:00 23.5 13 Oeste 22 Oeste 0 -- -- 40
2019-06-19 16:00:00 22.9 8 Norte 23 Norte 0 -- -- 42
2019-06-19 15:00:00 23.9 12 Noroeste 26 Oeste 0 -- -- 41
2019-06-19 14:00:00 22.1 14 Noroeste 32 Oeste 0 -- -- 45
2019-06-19 13:00:00 20.6 14 Noroeste 35 Oeste 0 -- -- 49
2019-06-19 12:00:00 19.9 20 Noroeste 30 Oeste 0 -- -- 50
2019-06-19 11:00:00 19.1 20 Noroeste 30 Oeste 0 -- -- 52
2019-06-19 10:00:00 17.8 21 Oeste 31 Oeste 0 -- -- 56
2019-06-19 09:00:00 17.6 8 Oeste 15 Oeste 0 -- -- 59
2019-06-19 08:00:00 14.9 4 Oeste 16 Oeste 0 -- -- 71
2019-06-19 07:00:00 14.1 16 Oeste 31 Oeste 0 -- -- 74
2019-06-19 06:00:00 13.8 23 Oeste 31 Oeste 0 -- -- 75
2019-06-19 05:00:00 14.3 21 Oeste 29 Oeste 0 -- -- 73
2019-06-19 04:00:00 13.8 9 Oeste 20 Oeste 0 -- -- 71
2019-06-19 03:00:00 14 15 Oeste 23 Oeste 0 -- -- 64
2019-06-19 02:00:00 14.5 4 Oeste 11 Este 0 -- -- 57
2019-06-19 01:00:00 14.1 6 Sudeste 18 Oeste 0 -- -- 61
2019-06-19 00:00:00 16.5 12 Oeste 22 Oeste 0 -- -- 53
2019-06-18 23:00:00 17.2 13 Oeste 22 Noroeste 0 -- -- 53
2019-06-18 22:00:00 19.1 15 Noroeste 30 Oeste 0 -- -- 45
2019-06-18 21:00:00 23.9 18 Sudoeste 38 Sudoeste 0 -- -- 18
2019-06-18 20:00:00 25.1 25 Sudoeste 41 Sudoeste 0 -- -- 15
2019-06-18 19:00:00 26.5 22 Sudoeste 48 Sudoeste 0 -- -- 14
2019-06-18 18:00:00 26.7 29 Sudoeste 45 Sudoeste 0 -- -- 15
2019-06-18 17:00:00 26.3 28 Sudoeste 46 Sudoeste 0 -- -- 15
2019-06-18 16:00:00 25.7 31 Sur 52 Sur 0 -- -- 15
2019-06-18 15:00:00 26.2 32 Sudoeste 55 Sudoeste 0 -- -- 15
2019-06-18 14:00:00 25.7 28 Sudoeste 50 Sur 0 -- -- 18
2019-06-18 13:00:00 24.7 30 Sur 49 Sur 0 -- -- 25
2019-06-18 12:00:00 24.4 30 Sudoeste 48 Sudoeste 0 -- -- 27
2019-06-18 11:00:00 24.5 21 Sudoeste 37 Sur 0 -- -- 20
2019-06-18 10:00:00 24.4 13 Sudoeste 22 Sudoeste 0 -- -- 24
2019-06-18 09:00:00 22.6 9 Sur 27 Sur 0 -- -- 27
2019-06-18 08:00:00 16.5 9 Este 25 Sur 0 -- -- 39
2019-06-18 07:00:00 15.9 13 Sudeste 29 Sur 0 -- -- 38
2019-06-18 06:00:00 13.8 9 Sudeste 17 Sudeste 0 -- -- 41
2019-06-18 05:00:00 14.1 11 Sudeste 20 Sudeste 0 -- -- 42
2019-06-18 04:00:00 16.8 11 Sur 18 Sur 0 -- -- 36
2019-06-18 03:00:00 16.5 5 Sudeste 13 Sudoeste 0 -- -- 37
2019-06-18 02:00:00 16.2 10 Oeste 18 Oeste 0 -- -- 36
2019-06-18 01:00:00 18.9 15 Oeste 18 Oeste 0 -- -- 30
2019-06-18 00:00:00 19.4 13 Oeste 23 Oeste 0 -- -- 28
2019-06-17 23:00:00 21.6 14 Oeste 24 Oeste 0 -- -- 26
2019-06-17 22:00:00 22.5 10 Sudoeste 17 Sudoeste 0 -- -- 23
2019-06-17 21:00:00 23.7 10 Sudoeste 26 Sudoeste 0 -- -- 21
2019-06-17 20:00:00 24.9 18 Sudoeste 29 Sudoeste 0 -- -- 19
2019-06-17 19:00:00 26.2 18 Sudoeste 34 Sudoeste 0 -- -- 18
2019-06-17 18:00:00 28.5 17 Sudoeste 34 Sudoeste 0 -- -- 18
2019-06-17 17:00:00 27.6 19 Sur 32 Sur 0 -- -- 19
2019-06-17 16:00:00 27.2 19 Sur 32 Sur 0 -- -- 19
2019-06-17 15:00:00 26.6 17 Sur 31 Sur 0 -- -- 19
2019-06-17 14:00:00 27 17 Sur 32 Sudeste 0 -- -- 20
2019-06-17 13:00:00 26 15 Sur 28 Sur 0 -- -- 19
2019-06-17 12:00:00 25.6 9 Noroeste 18 Oeste 0 -- -- 22
2019-06-17 11:00:00 25.9 8 Sudoeste 13 Oeste 0 -- -- 22
2019-06-17 10:00:00 23.6 6 Noroeste 11 Noroeste 0 -- -- 26
2019-06-17 09:00:00 21.4 6 Sur 10 Sur 0 -- -- 30
2019-06-17 08:00:00 18.3 4 Sur 10 Este 0 -- -- 32
2019-06-17 07:00:00 12.5 7 Sudeste 13 Sudeste 0 -- -- 42
2019-06-17 06:00:00 12.6 8 Sur 13 Sudeste 0 -- -- 40
2019-06-17 05:00:00 14.3 6 Sur 17 Sudeste 0 -- -- 36
2019-06-17 04:00:00 15.8 6 Oeste 11 Sudoeste 0 -- -- 34
2019-06-17 03:00:00 16.9 6 Oeste 23 Oeste 0 -- -- 30
2019-06-17 02:00:00 17.7 13 Oeste 20 Oeste 0 -- -- 27
2019-06-17 01:00:00 16.8 9 Oeste 31 Noroeste 0 -- -- 30
2019-06-17 00:00:00 19.4 13 Sudoeste 27 Sudoeste 0 -- -- 24
2019-06-16 23:00:00 19.8 14 Sudoeste 24 Sudoeste 0 -- -- 23
2019-06-16 22:00:00 20.1 10 Sur 27 Sudoeste 0 -- -- 23
2019-06-16 21:00:00 23 13 Sudoeste 24 Sudoeste 0 -- -- 23
2019-06-16 20:00:00 24.8 11 Sudoeste 22 Oeste 0 -- -- 20
2019-06-16 19:00:00 27.9 8 Sudoeste 24 Oeste 0 -- -- 18
2019-06-16 18:00:00 26.8 17 Sudoeste 37 Sudeste 0 -- -- 20
2019-06-16 17:00:00 26.5 15 Sur 40 Sudoeste 0 -- -- 20
2019-06-16 16:00:00 25.4 12 Sur 33 Sudoeste 0 -- -- 22
2019-06-16 15:00:00 25.7 13 Sudoeste 30 Sur 0 -- -- 22
2019-06-16 14:00:00 24.4 9 Noroeste 27 Sudoeste 0 -- -- 23
2019-06-16 13:00:00 23.7 6 Noroeste 23 Norte 0 -- -- 26
2019-06-16 12:00:00 23.3 12 Sudoeste 30 Sudoeste 0 -- -- 28
2019-06-16 11:00:00 21.6 17 Sur 29 Sur 0 -- -- 29
2019-06-16 10:00:00 20.5 12 Sudeste 19 Sudeste 0 -- -- 34
2019-06-16 09:00:00 17.6 11 Sudeste 21 Sudeste 0 -- -- 44
2019-06-16 08:00:00 12.1 13 Sudeste 21 Sudeste 0 -- -- 63
2019-06-16 07:00:00 7.3 16 Sudeste 18 Sudeste 0 -- -- 79
2019-06-16 06:00:00 7.2 15 Sudeste 18 Sudeste 0 -- -- 78
2019-06-16 05:00:00 8.4 14 Sudeste 22 Sudeste 0 -- -- 74
2019-06-16 04:00:00 8.5 12 Sudeste 23 Sudeste 0 -- -- 73
2019-06-16 03:00:00 10.4 12 Sudeste 20 Sudeste 0 -- -- 66
2019-06-16 02:00:00 8.6 13 Sudeste 17 Este 0 -- -- 73
2019-06-16 01:00:00 9.4 13 Sudeste 22 Este 0 -- -- 62
2019-06-16 00:00:00 12.4 3 Sudeste 9 Sur 0 -- -- 44
2019-06-15 23:00:00 13.3 5 Sudeste 8 Sudeste 0 -- -- 42
2019-06-15 22:00:00 14.9 5 Nordeste 17 Norte 0 -- -- 38
2019-06-15 21:00:00 19.4 12 Norte 20 Noroeste 0 -- -- 30
2019-06-15 20:00:00 21.1 12 Noroeste 23 Noroeste 0 -- -- 26
2019-06-15 19:00:00 22.5 10 Noroeste 30 Noroeste 0 -- -- 24
2019-06-15 18:00:00 21.8 9 Noroeste 26 Noroeste 0 -- -- 25
2019-06-15 17:00:00 21 15 Noroeste 28 Oeste 0 -- -- 26
2019-06-15 16:00:00 20.3 6 Norte 27 Noroeste 0 -- -- 29
2019-06-15 15:00:00 18.9 11 Noroeste 27 Noroeste 0 -- -- 37
2019-06-15 14:00:00 18.1 11 Oeste 25 Oeste 0 -- -- 39
2019-06-15 13:00:00 17 9 Noroeste 27 Oeste 0 -- -- 40
2019-06-15 12:00:00 15.3 16 Noroeste 29 Oeste 0 -- -- 43
2019-06-15 11:00:00 14.6 14 Noroeste 27 Noroeste 0 -- -- 47
2019-06-15 10:00:00 12.7 16 Oeste 31 Oeste 0 -- -- 56
2019-06-15 09:00:00 10.8 22 Oeste 30 Oeste 0 -- -- 63
2019-06-15 08:00:00 9.3 14 Noroeste 22 Oeste 0 -- -- 68
2019-06-15 07:00:00 6.9 12 Oeste 28 Oeste 0 -- -- 75
2019-06-15 06:00:00 7.4 19 Oeste 26 Oeste 0 -- -- 72
2019-06-15 05:00:00 8.1 18 Noroeste 23 Noroeste 0 -- -- 69
2019-06-15 04:00:00 8.8 16 Oeste 35 Oeste 0 -- -- 63
2019-06-15 03:00:00 9.6 19 Oeste 32 Oeste 0 -- -- 55
2019-06-15 02:00:00 10.4 21 Oeste 29 Oeste 0 -- -- 50
2019-06-15 01:00:00 10.9 15 Oeste 26 Oeste 0 -- -- 51
2019-06-15 00:00:00 11.6 13 Oeste 19 Oeste 0 -- -- 48
2019-06-14 23:00:00 13.7 15 Oeste 30 Oeste 0 -- -- 42
2019-06-14 22:00:00 15.8 18 Oeste 28 Noroeste 0 -- -- 36
2019-06-14 21:00:00 18.6 22 Noroeste 36 Noroeste 0 -- -- 30
2019-06-14 20:00:00 21.9 20 Oeste 32 Oeste 0 -- -- 24
2019-06-14 19:00:00 21.1 23 Sudoeste 40 Oeste 0 -- -- 24
2019-06-14 18:00:00 23.5 19 Sudoeste 45 Sudoeste 0 -- -- 21
2019-06-14 17:00:00 22.8 23 Sudoeste 41 Sudoeste 0 -- -- 23
2019-06-14 16:00:00 23.3 19 Sudoeste 40 Sudoeste 0 -- -- 21
2019-06-14 15:00:00 22.6 22 Sudoeste 37 Sudoeste 0 -- -- 22
2019-06-14 14:00:00 22.4 17 Sudoeste 39 Sur 0 -- -- 21
2019-06-14 13:00:00 21.8 18 Sur 39 Sudoeste 0 -- -- 28
2019-06-14 12:00:00 21.5 20 Sudoeste 39 Sudoeste 0 -- -- 28
2019-06-14 11:00:00 21 16 Sudoeste 32 Sur 0 -- -- 32
2019-06-14 10:00:00 21.1 8 Oeste 17 Oeste 0 -- -- 30
2019-06-14 09:00:00 19.9 6 Sur 12 Sur 0 -- -- 32
2019-06-14 08:00:00 16 7 Sur 17 Sudeste 0 -- -- 35
2019-06-14 07:00:00 11 13 Sur 20 Sur 0 -- -- 42
2019-06-14 06:00:00 11.1 4 Sudeste 17 Sudeste 0 -- -- 44
2019-06-14 05:00:00 9.2 9 Sudeste 13 Sudeste 0 -- -- 50
2019-06-14 04:00:00 9.9 7 Sudeste 13 Sur 0 -- -- 45
2019-06-14 03:00:00 11.1 9 Sur 12 Sur 0 -- -- 41
2019-06-14 02:00:00 11.4 0 Calma 20 Oeste 0 -- -- 39
2019-06-14 01:00:00 13.3 14 Oeste 20 Noroeste 0 -- -- 34
2019-06-14 00:00:00 14.7 9 Oeste 22 Oeste 0 -- -- 30
2019-06-13 23:00:00 16.2 12 Oeste 19 Oeste 0 -- -- 31
2019-06-13 22:00:00 17.4 11 Sudoeste 23 Oeste 0 -- -- 30
2019-06-13 21:00:00 19.8 15 Oeste 24 Oeste 0 -- -- 26
2019-06-13 20:00:00 21.2 18 Oeste 36 Sudoeste 0 -- -- 26
2019-06-13 19:00:00 22.9 24 Sudoeste 40 Sudoeste 0 -- -- 23
2019-06-13 18:00:00 23.9 24 Sudoeste 40 Sudoeste 0 -- -- 24
2019-06-13 17:00:00 23.7 20 Sur 41 Sudoeste 0 -- -- 28
2019-06-13 16:00:00 22.7 26 Sudoeste 53 Sudoeste 0 -- -- 31
2019-06-13 15:00:00 22.1 25 Sur 48 Sur 0 -- -- 30
2019-06-13 14:00:00 20.7 27 Sur 53 Sudoeste 0 -- -- 36
2019-06-13 13:00:00 19.8 27 Sur 48 Sur 0 -- -- 35
2019-06-13 12:00:00 17.9 29 Sur 48 Sur 0 -- -- 42
2019-06-13 11:00:00 16.4 27 Sur 48 Sur 0 -- -- 50
2019-06-13 10:00:00 15 25 Sur 48 Sur 0 -- -- 56
2019-06-13 09:00:00 13.9 22 Sur 39 Sur 0 -- -- 60
2019-06-13 08:00:00 12.2 17 Sur 39 Sur 0 -- -- 66
2019-06-13 07:00:00 10.1 20 Sur 48 Sur 0 -- -- 73
2019-06-13 06:00:00 10.9 33 Sur 49 Sur 0 -- -- 69
2019-06-13 05:00:00 11.9 22 Sur 45 Sur 0 -- -- 65
2019-06-13 04:00:00 11.4 18 Sur 37 Sur 0 -- -- 65
2019-06-13 03:00:00 9.9 7 Sudoeste 26 Sudeste 0 -- -- 43
2019-06-13 02:00:00 6.2 7 Este 13 Sur 0 -- -- 53
2019-06-13 01:00:00 9.8 8 Sudoeste 15 Oeste 0 -- -- 41
2019-06-13 00:00:00 10.6 12 Oeste 17 Sur 0 -- -- 40
2019-06-12 23:00:00 11.9 8 Sudeste 14 Sur 0 -- -- 37
2019-06-12 22:00:00 14.8 3 Sur 13 Sur 0 -- -- 32
2019-06-12 21:00:00 17.6 9 Sur 19 Sudoeste 0 -- -- 26
2019-06-12 20:00:00 18.5 10 Sur 22 Sur 0 -- -- 27
2019-06-12 19:00:00 18.6 9 Oeste 20 Sur 0 -- -- 29
2019-06-12 18:00:00 19.6 14 Sur 25 Sudeste 0 -- -- 29
2019-06-12 17:00:00 18 6 Sur 20 Sudeste 0 -- -- 31
2019-06-12 16:00:00 17.8 7 Sudoeste 22 Oeste 0 -- -- 34
2019-06-12 15:00:00 16.8 8 Sudoeste 21 Oeste 0 -- -- 37
2019-06-12 14:00:00 16.3 11 Oeste 23 Oeste 0 -- -- 36
2019-06-12 13:00:00 15.6 11 Noroeste 22 Noroeste 0 -- -- 40
2019-06-12 12:00:00 13.4 9 Nordeste 17 Norte 0 -- -- 44
2019-06-12 11:00:00 12.4 6 Noroeste 15 Oeste 0 -- -- 49
2019-06-12 10:00:00 10.9 5 Noroeste 17 Oeste 0 -- -- 51
2019-06-12 09:00:00 9.4 9 Oeste 15 Oeste 0 -- -- 58
2019-06-12 08:00:00 8.7 0 Calma 5 Noroeste 0 -- -- 63
2019-06-12 07:00:00 2.1 0 Calma 7 Sudoeste 0 -- -- 85
2019-06-12 06:00:00 1.9 0 Calma 10 Sudoeste 0 -- -- 82
2019-06-12 05:00:00 2.2 0 Calma 12 Sudoeste 0 -- -- 80
2019-06-12 04:00:00 2.2 7 Sur 13 Sur 0 -- -- 80
2019-06-12 03:00:00 2.9 4 Sur 13 Sudeste 0 -- -- 79
2019-06-12 02:00:00 3.5 5 Este 12 Este 0 -- -- 74
2019-06-12 01:00:00 5.1 3 Sudeste 6 Sudeste 0 -- -- 68
2019-06-12 00:00:00 5.8 3 Sudeste 8 Sudeste 0 -- -- 66
2019-06-11 23:00:00 6.3 4 Sudeste 10 Nordeste 0 -- -- 64
2019-06-11 22:00:00 9.2 9 Nordeste 18 Norte 0 -- -- 50
2019-06-11 21:00:00 12.3 15 Norte 32 Noroeste 0 -- -- 39
2019-06-11 20:00:00 13.7 20 Norte 33 Norte 0 -- -- 33
2019-06-11 19:00:00 13.3 19 Norte 37 Norte 0 -- -- 34
2019-06-11 18:00:00 14.6 24 Norte 41 Norte 0 -- -- 31
2019-06-11 17:00:00 13.8 26 Norte 40 Noroeste 0 -- -- 37
2019-06-11 16:00:00 13.7 25 Norte 37 Noroeste 0 -- -- 37
2019-06-11 15:00:00 13 21 Noroeste 38 Norte 0 -- -- 42
2019-06-11 14:00:00 11.1 21 Norte 36 Norte 0 -- -- 53
2019-06-11 13:00:00 9.5 24 Norte 35 Noroeste 0 -- -- 62
2019-06-11 12:00:00 10.3 23 Noroeste 32 Noroeste 0 -- -- 65
2019-06-11 11:00:00 8.5 19 Norte 30 Noroeste 0.2 -- -- 78
2019-06-11 10:00:00 7 19 Norte 26 Noroeste 0 -- -- 90
2019-06-11 09:00:00 6.6 6 Noroeste 11 Norte 0.8 -- -- 94
2019-06-11 08:00:00 6.5 3 Norte 9 Norte 0.4 -- -- 91
2019-06-11 07:00:00 6.3 4 Nordeste 15 Nordeste 0 -- -- 90
2019-06-11 06:00:00 7.1 2 Norte 14 Este 0 -- -- 78
2019-06-11 05:00:00 7.8 8 Nordeste 16 Norte 0 -- -- 75
2019-06-11 04:00:00 9.9 12 Noroeste 23 Noroeste 0 -- -- 66
2019-06-11 03:00:00 11.8 9 Noroeste 17 Oeste 0 -- -- 51
2019-06-11 02:00:00 11.6 4 Noroeste 15 Este 0 -- -- 55
2019-06-11 01:00:00 12.1 10 Este 19 Este 0 -- -- 51
2019-06-11 00:00:00 11.8 6 Sur 8 Sur 0 -- -- 52
2019-06-10 23:00:00 11.9 0 Calma 4 Sur 0 -- -- 53
2019-06-10 22:00:00 11.6 3 Norte 19 Norte 0 -- -- 52
2019-06-10 21:00:00 15 14 Norte 28 Norte 0 -- -- 42
2019-06-10 20:00:00 16.8 19 Norte 34 Noroeste 0 -- -- 39
2019-06-10 19:00:00 17.8 20 Norte 35 Noroeste 0 -- -- 33
2019-06-10 18:00:00 18.8 25 Noroeste 37 Noroeste 0 -- -- 32
2019-06-10 17:00:00 19.1 19 Noroeste 40 Noroeste 0 -- -- 32
2019-06-10 16:00:00 18.6 19 Noroeste 36 Noroeste 0 -- -- 34
2019-06-10 15:00:00 17.7 19 Noroeste 42 Noroeste 0 -- -- 35
2019-06-10 14:00:00 16.4 17 Noroeste 37 Noroeste 0 -- -- 42
2019-06-10 13:00:00 15.6 20 Noroeste 46 Oeste 0 -- -- 45
2019-06-10 12:00:00 14.3 20 Noroeste 35 Noroeste 0 -- -- 53
2019-06-10 11:00:00 13.2 24 Oeste 35 Oeste 0 -- -- 64
2019-06-10 10:00:00 11.5 18 Noroeste 28 Noroeste 0 -- -- 73
2019-06-10 09:00:00 10.4 17 Noroeste 26 Noroeste 0 -- -- 87
2019-06-10 08:00:00 7.3 8 Noroeste 13 Noroeste 0 -- -- 96
2019-06-10 07:00:00 6.3 5 Noroeste 10 Noroeste 0 -- -- 96
2019-06-10 06:00:00 6.5 5 Noroeste 9 Oeste 0 -- -- 95
2019-06-10 05:00:00 7.7 11 Oeste 22 Oeste 0 -- -- 93
2019-06-10 04:00:00 7.5 17 Oeste 23 Oeste 0 -- -- 93
2019-06-10 03:00:00 8.3 15 Oeste 21 Oeste 0 -- -- 90
2019-06-10 02:00:00 8.7 15 Norte 29 Oeste 0 -- -- 88
2019-06-10 01:00:00 9.8 21 Oeste 31 Oeste 0 -- -- 86
2019-06-10 00:00:00 12.2 20 Oeste 27 Oeste 0 -- -- 75
2019-06-09 23:00:00 14.3 14 Noroeste 28 Noroeste 0 -- -- 52
2019-06-09 22:00:00 16.8 19 Noroeste 31 Noroeste 0 -- -- 35
2019-06-09 21:00:00 18.7 18 Noroeste 33 Oeste 0 -- -- 32
2019-06-09 20:00:00 19.6 20 Noroeste 34 Noroeste 0 -- -- 30
2019-06-09 19:00:00 22 23 Oeste 33 Oeste 0 -- -- 26
2019-06-09 18:00:00 22.9 11 Noroeste 33 Oeste 0 -- -- 25
2019-06-09 17:00:00 23.1 18 Oeste 36 Oeste 0 -- -- 25
2019-06-09 16:00:00 22.3 24 Noroeste 42 Oeste 0 -- -- 25
2019-06-09 15:00:00 21.8 24 Oeste 38 Oeste 0 -- -- 25
2019-06-09 14:00:00 21.5 23 Oeste 39 Oeste 0 -- -- 28
2019-06-09 13:00:00 20.7 24 Oeste 38 Oeste 0 -- -- 28
2019-06-09 12:00:00 20.3 21 Noroeste 35 Oeste 0 -- -- 29
2019-06-09 11:00:00 19.4 13 Noroeste 22 Noroeste 0 -- -- 36
2019-06-09 10:00:00 18 10 Noroeste 17 Noroeste 0 -- -- 45
2019-06-09 09:00:00 15.7 10 Oeste 15 Oeste 0 -- -- 50
2019-06-09 08:00:00 14.9 3 Sudeste 12 Sudeste 0 -- -- 62
2019-06-09 07:00:00 12 10 Sur 18 Sur 0 -- -- 71
2019-06-09 06:00:00 12.6 13 Sudoeste 28 Sur 0 -- -- 69
2019-06-09 05:00:00 12.7 13 Sur 27 Sur 0 -- -- 69
2019-06-09 04:00:00 13.7 16 Sur 33 Sudoeste 0 -- -- 66
2019-06-09 03:00:00 14.3 11 Sur 28 Sur 0 -- -- 64
2019-06-09 02:00:00 15.1 14 Sur 28 Sudoeste 0 -- -- 62
2019-06-09 01:00:00 16.4 20 Sur 36 Sudoeste 0 -- -- 57
2019-06-09 00:00:00 16.4 9 Sudoeste 26 Sudoeste 0 -- -- 57
2019-06-08 23:00:00 17.1 10 Sur 24 Sudoeste 0 -- -- 54
2019-06-08 22:00:00 18.6 10 Sur 29 Sur 0 -- -- 50
2019-06-08 21:00:00 20.5 17 Sur 33 Sudoeste 0 -- -- 43
2019-06-08 20:00:00 21.5 17 Sur 28 Sudoeste 0 -- -- 37
2019-06-08 19:00:00 21.7 19 Sur 32 Sur 0 -- -- 37
2019-06-08 18:00:00 22.6 23 Sur 41 Sudeste 0 -- -- 34
2019-06-08 17:00:00 23.6 17 Sur 35 Sur 0 -- -- 32
2019-06-08 16:00:00 22 19 Sur 35 Sur 0 -- -- 34
2019-06-08 15:00:00 21.2 22 Sudeste 39 Sur 0 -- -- 36
2019-06-08 14:00:00 21.3 25 Sudeste 44 Sur 0 -- -- 36
2019-06-08 13:00:00 20.6 22 Sur 39 Sur 0 -- -- 30
2019-06-08 12:00:00 19.3 18 Sur 37 Sur 0 -- -- 31
2019-06-08 11:00:00 18.6 18 Sudeste 31 Sudeste 0 -- -- 32
2019-06-08 10:00:00 15.6 16 Sudeste 27 Sudeste 0 -- -- 40
2019-06-08 09:00:00 12.5 18 Este 24 Este 0 -- -- 49
2019-06-08 08:00:00 9 7 Sudeste 13 Sudeste 0 -- -- 55
2019-06-08 07:00:00 3 11 Sudeste 15 Sudeste 0 -- -- 74
2019-06-08 06:00:00 2.4 13 Sudeste 15 Sudeste 0 -- -- 76
2019-06-08 05:00:00 3.1 5 Sudeste 10 Sudeste 0 -- -- 72
2019-06-08 04:00:00 4.4 6 Sudeste 10 Sudeste 0 -- -- 68
2019-06-08 03:00:00 4.4 4 Sudeste 10 Este 0 -- -- 67
2019-06-08 02:00:00 5.7 3 Sudeste 7 Sudeste 0 -- -- 62
2019-06-08 01:00:00 6.4 4 Este 12 Sur 0 -- -- 60
2019-06-08 00:00:00 7.4 4 Sudoeste 9 Oeste 0 -- -- 57
2019-06-07 23:00:00 8.7 2 Oeste 13 Noroeste 0 -- -- 53
2019-06-07 22:00:00 9.5 9 Noroeste 17 Noroeste 0 -- -- 49
2019-06-07 21:00:00 14.3 14 Oeste 24 Noroeste 0 -- -- 36
2019-06-07 20:00:00 16.1 12 Noroeste 26 Noroeste 0 -- -- 34
2019-06-07 19:00:00 16.4 16 Oeste 35 Oeste 0 -- -- 32
2019-06-07 18:00:00 16.2 17 Noroeste 31 Oeste 0 -- -- 35
2019-06-07 17:00:00 14.4 16 Noroeste 44 Noroeste 0 -- -- 38
2019-06-07 16:00:00 13.8 18 Oeste 33 Oeste 0 -- -- 43
2019-06-07 15:00:00 13.5 19 Noroeste 36 Oeste 0 -- -- 46
2019-06-07 14:00:00 12.9 27 Oeste 42 Oeste 0 -- -- 47
2019-06-07 13:00:00 12 30 Oeste 43 Oeste 0 -- -- 49
2019-06-07 12:00:00 11 30 Oeste 45 Oeste 0 -- -- 56
2019-06-07 11:00:00 9.1 32 Oeste 47 Oeste 0 -- -- 63
2019-06-07 10:00:00 7.9 27 Oeste 44 Oeste 0 -- -- 69
2019-06-07 09:00:00 5.8 24 Oeste 36 Oeste 0 -- -- 84
2019-06-07 08:00:00 5.3 20 Oeste 35 Oeste 0 -- -- 87
2019-06-07 07:00:00 5.2 19 Oeste 44 Oeste 0 -- -- 88
2019-06-07 06:00:00 5.5 15 Sudoeste 36 Noroeste 0 -- -- 86
2019-06-07 05:00:00 4.8 20 Oeste 40 Oeste 0.2 -- -- 88
2019-06-07 04:00:00 5.3 22 Oeste 51 Oeste 0 -- -- 92
2019-06-07 03:00:00 6 21 Oeste 49 Oeste 0.2 -- -- 92
2019-06-07 02:00:00 8.1 27 Oeste 52 Sudoeste 0.4 -- -- 89
2019-06-07 01:00:00 14.3 31 Sudoeste 56 Sur 0 -- -- 47
2019-06-07 00:00:00 14.9 32 Sudoeste 58 Sudoeste 0 -- -- 38
2019-06-06 23:00:00 15.1 35 Sudoeste 57 Sudoeste 0 -- -- 36
2019-06-06 22:00:00 15.4 29 Sudoeste 51 Sudoeste 0 -- -- 34
2019-06-06 21:00:00 16.8 29 Sudoeste 53 Sudoeste 0 -- -- 31
2019-06-06 20:00:00 18.5 33 Sudoeste 58 Sudoeste 0 -- -- 27
2019-06-06 19:00:00 19.1 30 Sur 61 Sudoeste 0 -- -- 26
2019-06-06 18:00:00 19 27 Sur 55 Sudoeste 0 -- -- 26
2019-06-06 17:00:00 17.9 30 Sur 62 Sudoeste 0 -- -- 25
2019-06-06 16:00:00 18.7 32 Sur 62 Sudoeste 0 -- -- 24
2019-06-06 15:00:00 17.8 34 Sudoeste 51 Sur 0 -- -- 26
2019-06-06 14:00:00 17.6 25 Sudoeste 50 Sur 0 -- -- 27
2019-06-06 13:00:00 16.2 31 Sur 49 Sur 0 -- -- 27
2019-06-06 12:00:00 15.6 24 Sur 41 Sur 0 -- -- 35
2019-06-06 11:00:00 14.5 23 Sur 36 Sur 0 -- -- 38
2019-06-06 10:00:00 13.6 20 Sur 30 Sur 0 -- -- 45
2019-06-06 09:00:00 12.4 4 Este 8 Este 0 -- -- 51
2019-06-06 08:00:00 8.3 4 Sudeste 10 Sudoeste 0 -- -- 70
2019-06-06 07:00:00 5.7 3 Sudoeste 5 Oeste 0 -- -- 70
2019-06-06 06:00:00 5.2 0 Calma 16 Oeste 0 -- -- 72
2019-06-06 05:00:00 7.1 14 Oeste 23 Oeste 0 -- -- 65
2019-06-06 04:00:00 7.8 10 Oeste 21 Oeste 0 -- -- 63
2019-06-06 03:00:00 8.1 13 Oeste 23 Oeste 0 -- -- 62
2019-06-06 02:00:00 8.1 12 Oeste 19 Noroeste 0 -- -- 60
2019-06-06 01:00:00 7.9 10 Oeste 15 Oeste 0 -- -- 60
2019-06-06 00:00:00 8.7 8 Oeste 14 Oeste 0 -- -- 55
2019-06-05 23:00:00 10.1 11 Oeste 21 Noroeste 0 -- -- 51
2019-06-05 22:00:00 11.9 16 Oeste 26 Noroeste 0 -- -- 41
2019-06-05 21:00:00 13.5 14 Noroeste 35 Noroeste 0 -- -- 40
2019-06-05 20:00:00 14.5 15 Noroeste 34 Oeste 0 -- -- 36
2019-06-05 19:00:00 16.3 22 Noroeste 37 Oeste 0 -- -- 32
2019-06-05 18:00:00 14 17 Noroeste 42 Noroeste 0 -- -- 40
2019-06-05 17:00:00 15.3 26 Noroeste 50 Noroeste 0 -- -- 39
2019-06-05 16:00:00 14.6 33 Noroeste 41 Noroeste 0 -- -- 44
2019-06-05 15:00:00 11 23 Noroeste 44 Noroeste 0 -- -- 58
2019-06-05 14:00:00 11.8 29 Noroeste 41 Noroeste 0 -- -- 68
2019-06-05 13:00:00 8.8 21 Noroeste 35 Noroeste 0 -- -- 80
2019-06-05 12:00:00 8.5 22 Noroeste 37 Noroeste 0.6 -- -- 85
2019-06-05 11:00:00 6.7 21 Noroeste 44 Noroeste 0 -- -- 89
2019-06-05 10:00:00 6.9 22 Noroeste 42 Noroeste 1.8 -- -- 95
2019-06-05 09:00:00 6.3 26 Oeste 45 Oeste 1 -- -- 93
2019-06-05 08:00:00 7.2 21 Oeste 41 Oeste 0 -- -- 86
2019-06-05 07:00:00 7.5 26 Oeste 37 Oeste 0 -- -- 90
2019-06-05 06:00:00 7.2 27 Oeste 53 Oeste 0 -- -- 86
2019-06-05 05:00:00 10.1 26 Oeste 46 Oeste 0 -- -- 68
2019-06-05 04:00:00 12.2 25 Oeste 33 Oeste 0 -- -- 61
2019-06-05 03:00:00 12.9 16 Oeste 25 Noroeste 0 -- -- 63
2019-06-05 02:00:00 13.3 10 Noroeste 23 Noroeste 0 -- -- 68
2019-06-05 01:00:00 13.6 16 Noroeste 24 Noroeste 0 -- -- 67
2019-06-05 00:00:00 13.5 13 Oeste 26 Noroeste 0 -- -- 69
2019-06-04 23:00:00 15.1 16 Oeste 31 Oeste 0 -- -- 62
2019-06-04 22:00:00 17 18 Noroeste 36 Noroeste 0 -- -- 52
2019-06-04 21:00:00 19.4 16 Noroeste 31 Norte 0 -- -- 42
2019-06-04 20:00:00 20.3 19 Oeste 31 Noroeste 0 -- -- 41
2019-06-04 19:00:00 22.7 23 Noroeste 32 Noroeste 0 -- -- 36
2019-06-04 18:00:00 23.2 19 Oeste 36 Sudoeste 0 -- -- 37
2019-06-04 17:00:00 25.4 24 Sudoeste 45 Sudoeste 0 -- -- 28
2019-06-04 16:00:00 25.9 22 Sudoeste 37 Sudoeste 0 -- -- 29
2019-06-04 15:00:00 26.3 17 Sudoeste 36 Oeste 0 -- -- 28
2019-06-04 14:00:00 23.5 12 Oeste 22 Oeste 0 -- -- 39
2019-06-04 13:00:00 22 5 Norte 20 Noroeste 0 -- -- 49
2019-06-04 12:00:00 20.8 10 Noroeste 22 Oeste 0 -- -- 53
2019-06-04 11:00:00 19.2 14 Noroeste 20 Noroeste 0 -- -- 59
2019-06-04 10:00:00 18.3 8 Noroeste 20 Oeste 0 -- -- 59
2019-06-04 09:00:00 16.1 13 Noroeste 20 Noroeste 0 -- -- 66
2019-06-04 08:00:00 15.7 8 Noroeste 17 Oeste 0 -- -- 64
2019-06-04 07:00:00 10.7 2 Sudeste 8 Sudeste 0 -- -- 53
2019-06-04 06:00:00 12.1 6 Sudeste 8 Sudeste 0 -- -- 51
2019-06-04 05:00:00 14.2 6 Sudoeste 25 Oeste 0 -- -- 49
2019-06-04 04:00:00 18 21 Oeste 31 Oeste 0 -- -- 40
2019-06-04 03:00:00 18.5 18 Oeste 30 Oeste 0 -- -- 33
2019-06-04 02:00:00 18.7 13 Oeste 28 Oeste 0 -- -- 30
2019-06-04 01:00:00 19.3 14 Oeste 27 Oeste 0 -- -- 27
2019-06-04 00:00:00 19.2 10 Sudoeste 20 Oeste 0 -- -- 25
2019-06-03 23:00:00 20.2 12 Oeste 18 Sudoeste 0 -- -- 23
2019-06-03 22:00:00 21 9 Sudoeste 26 Oeste 0 -- -- 22
2019-06-03 21:00:00 24.2 20 Oeste 36 Oeste 0 -- -- 17
2019-06-03 20:00:00 26.9 26 Oeste 42 Oeste 0 -- -- 15
2019-06-03 19:00:00 29 24 Oeste 37 Oeste 0 -- -- 15
2019-06-03 18:00:00 28.2 23 Sudoeste 57 Oeste 0 -- -- 23
2019-06-03 17:00:00 28.2 9 Sudoeste 33 Sudoeste 0 -- -- 26
2019-06-03 16:00:00 27.2 14 Sudoeste 32 Oeste 0 -- -- 26
2019-06-03 15:00:00 28.1 20 Oeste 49 Oeste 0 -- -- 23
2019-06-03 14:00:00 27.8 24 Sudoeste 41 Noroeste 0 -- -- 22
2019-06-03 13:00:00 25.9 14 Noroeste 27 Noroeste 0 -- -- 30
2019-06-03 12:00:00 24.9 6 Oeste 18 Oeste 0 -- -- 30
2019-06-03 11:00:00 22.7 11 Oeste 20 Oeste 0 -- -- 31
2019-06-03 10:00:00 20.1 5 Noroeste 15 Noroeste 0 -- -- 38
2019-06-03 09:00:00 18.6 3 Este 12 Sur 0 -- -- 46
2019-06-03 08:00:00 13.8 6 Sur 13 Oeste 0 -- -- 59
2019-06-03 07:00:00 14.7 6 Oeste 18 Sudoeste 0 -- -- 48
2019-06-03 06:00:00 15 11 Oeste 14 Oeste 0 -- -- 50
2019-06-03 05:00:00 13.9 2 Sudeste 14 Sur 0 -- -- 61
2019-06-03 04:00:00 14 5 Sudeste 14 Sur 0 -- -- 59
2019-06-03 03:00:00 14.9 9 Sur 14 Sudoeste 0 -- -- 56
2019-06-03 02:00:00 15.9 2 Sudoeste 11 Sur 0 -- -- 52
2019-06-03 01:00:00 16.4 4 Este 13 Sudoeste 0 -- -- 53
2019-06-03 00:00:00 17.3 2 Sur 16 Sur 0 -- -- 54
2019-06-02 23:00:00 18.9 5 Sudeste 31 Sur 0 -- -- 50
2019-06-02 22:00:00 20.3 10 Sudeste 41 Sur 0 -- -- 44
2019-06-02 21:00:00 24.6 11 Noroeste 21 Noroeste 0 -- -- 26
2019-06-02 20:00:00 26.1 11 Noroeste 18 Noroeste 0 -- -- 24
2019-06-02 19:00:00 28 11 Noroeste 23 Noroeste 0 -- -- 22
2019-06-02 18:00:00 29.1 12 Oeste 31 Oeste 0 -- -- 22
2019-06-02 17:00:00 30.5 15 Oeste 33 Noroeste 0 -- -- 21
2019-06-02 16:00:00 29.9 9 Noroeste 32 Sudoeste 0 -- -- 21
2019-06-02 15:00:00 29.3 19 Noroeste 37 Noroeste 0 -- -- 22
2019-06-02 14:00:00 28.8 21 Noroeste 33 Noroeste 0 -- -- 24
2019-06-02 13:00:00 27.8 12 Noroeste 28 Noroeste 0 -- -- 28
2019-06-02 12:00:00 26.6 12 Noroeste 26 Oeste 0 -- -- 29
2019-06-02 11:00:00 25.5 17 Oeste 28 Oeste 0 -- -- 31
2019-06-02 10:00:00 24.2 14 Oeste 22 Oeste 0 -- -- 34
2019-06-02 09:00:00 22.4 4 Este 8 Este 0 -- -- 33
2019-06-02 08:00:00 18.6 4 Sudeste 14 Noroeste 0 -- -- 43
2019-06-02 07:00:00 14.2 12 Noroeste 19 Sur 0 -- -- 48
2019-06-02 06:00:00 18.3 12 Sur 27 Sudoeste 0 -- -- 35
2019-06-02 05:00:00 18.5 15 Sur 33 Sur 0 -- -- 36
2019-06-02 04:00:00 18.9 21 Sudoeste 32 Sur 0 -- -- 35
2019-06-02 03:00:00 18.5 12 Sur 23 Sur 0 -- -- 36
2019-06-02 02:00:00 15.5 10 Sudeste 17 Sur 0 -- -- 47
2019-06-02 01:00:00 18.1 6 Este 15 Sur 0 -- -- 40
2019-06-02 00:00:00 20.4 8 Sur 22 Sur 0 -- -- 34
2019-06-01 23:00:00 21.6 11 Sur 20 Sur 0 -- -- 32
2019-06-01 22:00:00 21.5 9 Sur 13 Sur 0 -- -- 33
2019-06-01 21:00:00 28.6 2 Nordeste 16 Norte 0 -- -- 22
2019-06-01 20:00:00 29.7 6 Nordeste 16 Nordeste 0 -- -- 18
2019-06-01 19:00:00 31.2 3 Norte 22 Norte 0 -- -- 18
2019-06-01 18:00:00 30.7 8 Oeste 23 Norte 0 -- -- 17
2019-06-01 17:00:00 30.4 8 Sudoeste 27 Noroeste 0 -- -- 16
2019-06-01 16:00:00 29.2 12 Oeste 23 Norte 0 -- -- 17
2019-06-01 15:00:00 28.4 11 Oeste 21 Oeste 0 -- -- 17
2019-06-01 14:00:00 27.4 8 Norte 22 Noroeste 0 -- -- 20
2019-06-01 13:00:00 27.6 8 Norte 19 Norte 0 -- -- 20
2019-06-01 12:00:00 26.5 7 Noroeste 21 Noroeste 0 -- -- 25
2019-06-01 11:00:00 25.6 10 Noroeste 32 Norte 0 -- -- 25
2019-06-01 10:00:00 26.5 2 Nordeste 7 Este 0 -- -- 24
2019-06-01 09:00:00 23.1 3 Este 5 Este 0 -- -- 30
2019-06-01 08:00:00 21 2 Este 10 Sudeste 0 -- -- 35
2019-06-01 07:00:00 13.2 8 Sudeste 14 Sudeste 0 -- -- 47
2019-06-01 06:00:00 12.9 12 Sudeste 14 Sudeste 0 -- -- 49
2019-06-01 05:00:00 17.1 12 Sudoeste 20 Sur 0 -- -- 38
2019-06-01 04:00:00 17.4 13 Sudeste 38 Sur 0 -- -- 38
2019-06-01 03:00:00 19.1 22 Sur 34 Sur 0 -- -- 36
2019-06-01 02:00:00 13.1 11 Sudeste 23 Sudeste 0 -- -- 49
2019-06-01 01:00:00 13.3 14 Sudeste 20 Sudeste 0 -- -- 49
2019-06-01 00:00:00 15.5 15 Sudeste 21 Este 0 -- -- 41
2019-05-31 23:00:00 17.2 6 Sudeste 13 Sur 0 -- -- 33
2019-05-31 22:00:00 19.7 6 Sudeste 12 Sudeste 0 -- -- 29
2019-05-31 21:00:00 26.4 8 Este 17 Nordeste 0 -- -- 19
2019-05-31 20:00:00 28.5 6 Este 25 Norte 0 -- -- 17
2019-05-31 19:00:00 28.4 10 Norte 22 Norte 0 -- -- 18
2019-05-31 18:00:00 28.2 13 Nordeste 28 Nordeste 0 -- -- 19
2019-05-31 17:00:00 29 8 Sudoeste 22 Nordeste 0 -- -- 19
2019-05-31 16:00:00 27.1 10 Norte 30 Nordeste 0 -- -- 22
2019-05-31 15:00:00 26.7 13 Norte 20 Norte 0 -- -- 22
2019-05-31 14:00:00 27 7 Sudoeste 19 Oeste 0 -- -- 20
2019-05-31 13:00:00 25.5 8 Sur 18 Oeste 0 -- -- 23
2019-05-31 12:00:00 24.4 7 Oeste 14 Oeste 0 -- -- 27
2019-05-31 11:00:00 24.1 6 Sudeste 20 Sur 0 -- -- 28
2019-05-31 10:00:00 22 14 Sudeste 22 Sudeste 0 -- -- 32
2019-05-31 09:00:00 19.3 9 Este 13 Sudeste 0 -- -- 43
2019-05-31 08:00:00 14 6 Sudeste 15 Sudeste 0 -- -- 56
2019-05-31 07:00:00 8.3 10 Sudeste 14 Sudeste 0 -- -- 71
2019-05-31 06:00:00 9 10 Sudeste 14 Sudeste 0 -- -- 68
2019-05-31 05:00:00 10.8 10 Sudeste 20 Sur 0 -- -- 62
2019-05-31 04:00:00 13.9 17 Sudeste 21 Sudeste 0 -- -- 51
2019-05-31 03:00:00 12.7 14 Sudeste 18 Sur 0 -- -- 55
2019-05-31 02:00:00 11.6 11 Sudeste 16 Sudeste 0 -- -- 60
2019-05-31 01:00:00 14.1 13 Sudeste 21 Sudeste 0 -- -- 51
2019-05-31 00:00:00 13.2 12 Sudeste 17 Sudeste 0 -- -- 51
2019-05-30 23:00:00 15.2 14 Sudeste 16 Sudeste 0 -- -- 40
2019-05-30 22:00:00 15.7 11 Sudeste 25 Este 0 -- -- 37
2019-05-30 21:00:00 22.7 13 Este 25 Este 0 -- -- 24
2019-05-30 20:00:00 24.9 18 Este 28 Este 0 -- -- 22
2019-05-30 19:00:00 27.1 9 Norte 28 Norte 0 -- -- 21
2019-05-30 18:00:00 26.5 9 Norte 21 Nordeste 0 -- -- 23
2019-05-30 17:00:00 26.3 9 Este 24 Nordeste 0 -- -- 21
2019-05-30 16:00:00 24.7 10 Nordeste 21 Sudeste 0 -- -- 25
2019-05-30 15:00:00 23.5 9 Norte 35 Este 0 -- -- 27
2019-05-30 14:00:00 22.8 13 Nordeste 26 Norte 0 -- -- 27
2019-05-30 13:00:00 21.9 12 Nordeste 23 Nordeste 0 -- -- 25
2019-05-30 12:00:00 20.6 7 Norte 14 Nordeste 0 -- -- 36
2019-05-30 11:00:00 19.3 5 Noroeste 11 Norte 0 -- -- 39
2019-05-30 10:00:00 17.9 5 Noroeste 10 Noroeste 0 -- -- 42
2019-05-30 09:00:00 17.9 0 Calma 4 Norte 0 -- -- 44
2019-05-30 08:00:00 13.1 2 Este 9 Sudeste 0 -- -- 57
2019-05-30 07:00:00 4.6 5 Sudeste 9 Sudeste 0 -- -- 87
2019-05-30 06:00:00 5.9 8 Sudeste 11 Sudeste 0 -- -- 79
2019-05-30 05:00:00 6.7 11 Sudeste 15 Sudeste 0 -- -- 78
2019-05-30 04:00:00 6.3 11 Sudeste 13 Sudeste 0 -- -- 79
2019-05-30 03:00:00 6.6 9 Este 14 Sudeste 0 -- -- 77
2019-05-30 02:00:00 6.9 13 Sudeste 15 Sudeste 0 -- -- 77
2019-05-30 01:00:00 6.9 9 Sudeste 15 Sudeste 0 -- -- 79
2019-05-30 00:00:00 9.1 12 Sudeste 15 Sudeste 0 -- -- 71
2019-05-29 23:00:00 10.3 5 Este 10 Nordeste 0 -- -- 63
2019-05-29 22:00:00 13 9 Norte 22 Norte 0 -- -- 54
2019-05-29 21:00:00 17.2 17 Norte 30 Nordeste 0 -- -- 44
2019-05-29 20:00:00 19.2 18 Norte 28 Norte 0 -- -- 38
2019-05-29 19:00:00 20.7 15 Norte 27 Norte 0 -- -- 37
2019-05-29 18:00:00 20.9 14 Norte 28 Norte 0 -- -- 34
2019-05-29 17:00:00 20.2 17 Norte 32 Norte 0 -- -- 38
2019-05-29 16:00:00 19.4 15 Norte 34 Norte 0 -- -- 39
2019-05-29 15:00:00 18.4 18 Norte 36 Norte 0 -- -- 42
2019-05-29 14:00:00 17.1 20 Noroeste 36 Norte 0 -- -- 45
2019-05-29 13:00:00 15.8 14 Norte 29 Noroeste 0 -- -- 49
2019-05-29 12:00:00 13.3 12 Norte 28 Oeste 0 -- -- 53
2019-05-29 11:00:00 13.3 13 Norte 21 Norte 0 -- -- 54
2019-05-29 10:00:00 11.4 13 Noroeste 21 Noroeste 0 -- -- 58
2019-05-29 09:00:00 9.6 10 Oeste 16 Oeste 0 -- -- 62
2019-05-29 08:00:00 8.1 8 Oeste 12 Oeste 0 -- -- 67
2019-05-29 07:00:00 2.9 4 Noroeste 14 Oeste 0 -- -- 84
2019-05-29 06:00:00 3 9 Oeste 12 Oeste 0 -- -- 86
2019-05-29 05:00:00 2.8 5 Noroeste 13 Oeste 0 -- -- 86
2019-05-29 04:00:00 3.8 9 Oeste 13 Oeste 0 -- -- 82
2019-05-29 03:00:00 4.1 8 Noroeste 10 Noroeste 0 -- -- 82
2019-05-29 02:00:00 4.7 5 Noroeste 8 Noroeste 0 -- -- 79
2019-05-29 01:00:00 5.5 3 Noroeste 6 Noroeste 0 -- -- 76
2019-05-29 00:00:00 6.3 4 Norte 8 Nordeste 0 -- -- 72
2019-05-28 23:00:00 7.9 3 Norte 13 Norte 0 -- -- 65
2019-05-28 22:00:00 9.9 8 Norte 22 Norte 0 -- -- 54
2019-05-28 21:00:00 12.8 18 Norte 30 Norte 0 -- -- 48
2019-05-28 20:00:00 15 18 Norte 32 Norte 0 -- -- 44
2019-05-28 19:00:00 16.1 23 Nordeste 39 Norte 0 -- -- 37
2019-05-28 18:00:00 16.7 23 Norte 42 Noroeste 0 -- -- 35
2019-05-28 17:00:00 17.4 26 Norte 42 Norte 0 -- -- 34
2019-05-28 16:00:00 18 19 Norte 37 Noroeste 0 -- -- 31
2019-05-28 15:00:00 17.8 19 Norte 42 Norte 0 -- -- 32
2019-05-28 14:00:00 17.3 21 Norte 34 Noroeste 0 -- -- 33
2019-05-28 13:00:00 15.4 15 Norte 34 Noroeste 0 -- -- 39
2019-05-28 12:00:00 14 15 Noroeste 29 Noroeste 0 -- -- 47
2019-05-28 11:00:00 12.6 18 Noroeste 27 Oeste 0 -- -- 49
2019-05-28 10:00:00 10.4 16 Noroeste 26 Noroeste 0 -- -- 63
2019-05-28 09:00:00 8.9 14 Oeste 18 Oeste 0 -- -- 71
2019-05-28 08:00:00 7.1 7 Noroeste 13 Oeste 0 -- -- 83
2019-05-28 07:00:00 4.5 10 Oeste 16 Oeste 0 -- -- 94
2019-05-28 06:00:00 4.7 4 Oeste 12 Sudoeste 0 -- -- 93
2019-05-28 05:00:00 4.8 0 Calma 6 Sudeste 0 -- -- 91
2019-05-28 04:00:00 6.2 4 Sudeste 10 Sudeste 0 -- -- 90
2019-05-28 03:00:00 6.5 9 Sudeste 11 Sudeste 0 -- -- 89
2019-05-28 02:00:00 7.5 8 Sudeste 12 Sudeste 0 -- -- 83
2019-05-28 01:00:00 8.8 6 Sudeste 14 Sudeste 0 -- -- 77
2019-05-28 00:00:00 9.6 8 Sudeste 18 Este 0 -- -- 73